Time;durP1;ratioP1;P1;durP2;ratioP2;P2;SDS_P1;SDS_P2;PMS_P1;PMS_P2;Temp;Humidity;BMP_temperature;BMP_pressure;BME280_temperature;BME280_humidity;BME280_pressure;Samples;Min_cycle;Max_cycle;Signal;HPM_P1;HPM_P2
2022/03/23 00:02:12;;;;;;;50.15;30.40;;;;;;;;;;5075508;28;20027;-73
2022/03/23 00:04:39;;;;;;;56.55;31.85;;;;;;;;;;5075515;28;20429;-73
2022/03/23 00:07:05;;;;;;;48.28;30.52;;;;;;;;;;5074653;28;20029;-73
2022/03/23 00:09:31;;;;;;;44.17;29.33;;;;;;;;;;5075278;28;20033;-72
2022/03/23 00:11:57;;;;;;;52.53;35.22;;;;;;;;;;5075137;28;20052;-72
2022/03/23 00:14:23;;;;;;;56.03;38.13;;;;;;;;;;5056979;28;20453;-71
2022/03/23 00:16:49;;;;;;;56.22;43.92;;;;;;;;;;5075364;28;20051;-73
2022/03/23 00:19:17;;;;;;;56.35;43.28;;;;;;;;;;5075193;28;20028;-73
2022/03/23 00:21:43;;;;;;;88.05;68.45;;;;;;;;;;5075226;28;20024;-73
2022/03/23 00:24:09;;;;;;;43.13;28.25;;;;;;;;;;5074969;28;20021;-73
2022/03/23 00:26:35;;;;;;;39.22;26.73;;;;;;;;;;5074643;28;20050;-73
2022/03/23 00:29:01;;;;;;;37.35;24.08;;;;;;;;;;5074952;28;20032;-72
2022/03/23 00:31:27;;;;;;;37.38;24.42;;;;;;;;;;5074895;28;20032;-73
2022/03/23 00:33:54;;;;;;;43.63;31.98;;;;;;;;;;5074716;28;20064;-73
2022/03/23 00:36:24;;;;;;;58.65;48.08;;;;;;;;;;5074693;28;20024;-72
2022/03/23 00:38:51;;;;;;;41.88;29.20;;;;;;;;;;5074983;28;20028;-73
2022/03/23 00:41:17;;;;;;;53.40;35.92;;;;;;;;;;5074708;28;20082;-73
2022/03/23 00:43:43;;;;;;;43.40;26.23;;;256.60;1305.60;;;;;;5074763;28;20082;-72
2022/03/23 00:46:08;;;;;;;40.35;24.83;;;256.50;1305.60;;;;;;5075026;28;20417;-72
2022/03/23 00:48:34;;;;;;;34.60;24.38;;;256.50;1305.60;;;;;;5074699;28;20128;-73
2022/03/23 00:51:00;;;;;;;57.28;45.03;;;256.40;1331.20;;;;;;5056050;28;20493;-73
2022/03/23 00:53:26;;;;;;;40.42;26.27;;;256.50;1331.20;;;;;;5074458;28;20044;-73
2022/03/23 00:55:52;;;;;;;39.78;27.52;;;256.50;1331.20;;;;;;5074536;28;20028;-73
2022/03/23 00:58:18;;;;;;;44.28;27.88;;;;;;;;;;5074238;28;20103;-73
2022/03/23 01:00:45;;;;;;;44.40;32.03;;;;;;;;;;5074410;28;20103;-73
2022/03/23 01:03:11;;;;;;;41.72;30.98;;;;;;;;;;5074257;28;20033;-73
2022/03/23 01:05:37;;;;;;;40.72;29.58;;;;;;;;;;5074576;28;20021;-73
2022/03/23 01:08:04;;;;;;;46.40;34.15;;;;;;;;;;5074083;28;20032;-73
2022/03/23 01:10:31;;;;;;;44.92;31.65;;;;;;;;;;5074082;28;20028;-73
2022/03/23 01:12:58;;;;;;;37.70;24.85;;;;;;;;;;5073837;28;20043;-73
2022/03/23 01:15:24;;;;;;;34.40;24.48;;;;;;;;;;5074068;28;20028;-73
2022/03/23 01:17:50;;;;;;;38.17;30.08;;;;;;;;;;5073698;28;20020;-73
2022/03/23 01:20:17;;;;;;;55.38;45.08;;;;;;;;;;5073318;28;20032;-73
2022/03/23 01:22:44;;;;;;;43.70;29.50;;;;;;;;;;5073926;28;20020;-69
2022/03/23 01:25:10;;;;;;;37.17;25.83;;;;;;;;;;5073586;28;20040;-72
2022/03/23 01:27:38;;;;;;;37.08;27.20;;;;;;;;;;5073572;28;20032;-72
2022/03/23 01:30:05;;;;;;;36.28;26.63;;;;;;;;;;5073691;28;20017;-72
2022/03/23 01:32:31;;;;;;;36.85;24.52;;;;;;;;;;5073625;28;20112;-73
2022/03/23 01:34:57;;;;;;;37.60;23.33;;;;;;;;;;5073687;28;20455;-72
2022/03/23 01:37:24;;;;;;;41.63;28.90;;;;;;;;;;5073533;28;20028;-73
2022/03/23 01:39:50;;;;;;;46.60;31.13;;;;;;;;;;5073582;28;20024;-72
2022/03/23 01:42:16;;;;;;;48.38;32.53;;;;;;;;;;5073416;28;20383;-73
2022/03/23 01:44:42;;;;;;;51.47;34.92;;;;;;;;;;5073377;28;20024;-72
2022/03/23 01:47:09;;;;;;;54.92;38.70;;;;;;;;;;5073260;28;20115;-72
2022/03/23 01:49:40;;;;;;;36.55;24.88;;;;;;;;;;5073408;28;20024;-72
2022/03/23 01:52:07;;;;;;;38.83;25.67;;;;;;;;;;5073276;28;20016;-73
2022/03/23 01:54:33;;;;;;;39.97;26.15;;;;;;;;;;5073231;28;20471;-73
2022/03/23 01:57:00;;;;;;;33.85;24.17;;;;;;;;;;5073017;28;20440;-73
2022/03/23 01:59:27;;;;;;;35.63;23.80;;;;;;;;;;5073249;28;20047;-73
2022/03/23 02:01:54;;;;;;;36.05;23.98;;;;;;;;;;5073290;28;20100;-72
2022/03/23 02:04:21;;;;;;;38.65;26.80;;;;;;;;;;5073204;28;20360;-73
2022/03/23 02:06:48;;;;;;;32.45;22.63;;;;;;;;;;5073345;28;20079;-73
2022/03/23 02:09:15;;;;;;;43.85;35.30;;;;;;;;;;5073142;28;20073;-72
2022/03/23 02:11:42;;;;;;;39.83;26.58;;;;;;;;;;5072855;28;20029;-73
2022/03/23 02:14:09;;;;;;;41.88;28.02;;;;;;;;;;5072969;28;20044;-73
2022/03/23 02:16:40;;;;;;;38.92;25.55;;;230.60;1459.20;;;;;;5073152;28;20039;-73
2022/03/23 02:19:06;;;;;;;38.33;26.07;;;230.50;1459.20;;;;;;5073051;28;20059;-71
2022/03/23 02:21:32;;;;;;;42.60;27.60;;;205.70;1459.20;;;;;;5073350;28;20044;-72
2022/03/23 02:23:58;;;;;;;52.75;31.83;;;;;;;;;;5073384;28;20524;-73
2022/03/23 02:26:26;;;;;;;57.22;30.70;;;;;;;;;;5072523;28;20045;-73
2022/03/23 02:28:53;;;;;;;46.25;30.15;;;230.60;1459.20;;;;;;5072878;28;20013;-73
2022/03/23 02:31:19;;;;;;;42.53;28.27;;;230.60;1459.20;;;;;;5072591;28;20024;-73
2022/03/23 02:33:45;;;;;;;40.42;28.65;;;230.90;1433.60;;;;;;5054982;28;20037;-73
2022/03/23 02:36:11;;;;;;;54.83;35.72;;;230.80;1433.60;;;;;;5072950;28;20361;-71
2022/03/23 02:38:37;;;;;;;34.72;22.70;;;230.90;1433.60;;;;;;5072889;28;20039;-72
2022/03/23 02:41:03;;;;;;;30.33;21.75;;;;;;;;;;5072604;28;20021;-72
2022/03/23 02:43:29;;;;;;;33.50;20.88;;;;;;;;;;5073123;28;20123;-70
2022/03/23 02:45:55;;;;;;;35.53;21.88;;;230.40;1484.80;;;;;;5072974;28;20099;-70
2022/03/23 02:48:21;;;;;;;34.40;21.48;;;230.40;1484.80;;;;;;5072952;28;20116;-68
2022/03/23 02:50:47;;;;;;;32.40;21.45;;;;;;;;;;5072773;28;20425;-71
2022/03/23 03:01:52;;;;;;;26.15;19.75;;;;;;;;;;5072815;28;20040;-70
2022/03/23 03:04:19;;;;;;;28.10;19.00;;;;;;;;;;5072387;28;20028;-70
2022/03/23 03:06:48;;;;;;;30.90;19.38;;;;;;;;;;5072412;28;20024;-70
2022/03/23 03:09:15;;;;;;;28.27;19.42;;;;;;;;;;5072442;28;20024;-68
2022/03/23 03:11:44;;;;;;;25.60;18.98;;;;;;;;;;5072440;28;20027;-68
2022/03/23 03:14:13;;;;;;;30.00;21.15;;;;;;;;;;5072329;28;20125;-71
2022/03/23 03:16:39;;;;;;;31.35;20.05;;;;;;;;;;5072088;28;20475;-73
2022/03/23 03:19:06;;;;;;;31.50;20.02;;;;;;;;;;5072366;28;20029;-70
2022/03/23 03:21:32;;;;;;;27.05;18.52;;;;;;;;;;5072363;28;20023;-71
2022/03/23 03:23:59;;;;;;;27.33;18.45;;;;;;;;;;5072305;28;20029;-71
2022/03/23 03:26:24;;;;;;;27.27;17.95;;;180.10;1587.20;;;;;;5054156;28;20048;-72
2022/03/23 03:28:50;;;;;;;26.00;17.52;;;204.80;1587.20;;;;;;5072365;28;20494;-71
2022/03/23 03:31:16;;;;;;;25.55;17.17;;;204.80;1587.20;;;;;;5072345;28;20101;-71
2022/03/23 03:33:43;;;;;;;27.63;16.60;;;180.10;1587.20;;;;;;5072679;28;20106;-72
2022/03/23 03:36:09;;;;;;;30.15;17.83;;;180.00;1612.80;;;;;;5072160;28;20032;-72
2022/03/23 03:38:37;;;;;;;34.78;17.08;;;204.90;1612.80;;;;;;5072187;28;20073;-70
2022/03/23 03:41:03;;;;;;;26.80;18.92;;;;;;;;;;5072189;28;20462;-71
2022/03/23 03:43:30;;;;;;;32.88;22.08;;;;;;;;;;5075067;28;20021;-73
2022/03/23 03:45:56;;;;;;;28.67;20.45;;;;;;;;;;5075952;28;20035;-70
2022/03/23 03:48:22;;;;;;;44.65;27.02;;;;;;;;;;5075662;28;20039;-72
2022/03/23 03:50:49;;;;;;;41.30;25.63;;;;;;;;;;5075889;28;20105;-73
2022/03/23 03:53:15;;;;;;;42.85;25.13;;;;;;;;;;5075667;28;20118;-71
2022/03/23 03:55:41;;;;;;;38.35;22.80;;;;;;;;;;5075517;28;20021;-70
2022/03/23 03:58:12;;;;;;;36.50;23.73;;;;;;;;;;5075466;28;20028;-69
2022/03/23 04:00:39;;;;;;;37.00;22.00;;;;;;;;;;5075575;28;20048;-70
2022/03/23 04:03:06;;;;;;;34.70;23.08;;;;;;;;;;5075363;28;20060;-68
2022/03/23 04:05:33;;;;;;;37.78;23.70;;;204.80;1587.20;;;;;;5075622;28;20450;-69
2022/03/23 04:07:59;;;;;;;34.00;22.10;;;204.90;1612.80;;;;;;5075449;28;20024;-71
2022/03/23 04:10:26;;;;;;;37.83;24.25;;;;;;;;;;5075414;28;20467;-71
2022/03/23 04:12:52;;;;;;;34.13;22.35;;;;;;;;;;5075214;28;20032;-70
2022/03/23 04:15:21;;;;;;;36.92;22.00;;;;;;;;;;5075392;28;20348;-73
2022/03/23 04:17:48;;;;;;;26.20;19.20;;;;;;;;;;5057161;28;20048;-71
2022/03/23 04:20:14;;;;;;;32.47;19.67;;;;;;;;;;5057140;28;20043;-72
2022/03/23 04:22:40;;;;;;;35.35;19.73;;;;;;;;;;5075356;28;20025;-72
2022/03/23 04:25:10;;;;;;;36.72;20.92;;;;;;;;;;5074900;28;20040;-73
2022/03/23 04:28:06;;;;;;;40.63;25.25;;;;;;;;;;5074953;28;20024;-72
2022/03/23 04:30:32;;;;;;;36.83;23.60;;;;;;;;;;4993593;28;20042;-72
2022/03/23 04:32:59;;;;;;;37.20;22.55;;;;;;;;;;4993491;28;20062;-72
2022/03/23 04:35:26;;;;;;;34.97;20.88;;;;;;;;;;4993497;28;20038;-73
2022/03/23 04:37:52;;;;;;;27.92;19.02;;;;;;;;;;4993471;28;20145;-73
2022/03/23 04:40:19;;;;;;;27.80;18.98;;;;;;;;;;4993449;28;20041;-73
2022/03/23 04:42:45;;;;;;;29.75;19.38;;;;;;;;;;4993148;28;20045;-73
2022/03/23 04:45:12;;;;;;;29.05;19.88;;;;;;;;;;4993309;28;20042;-73
2022/03/23 04:47:38;;;;;;;35.13;21.02;;;;;;;;;;4993318;28;20046;-73
2022/03/23 04:50:06;;;;;;;30.15;20.55;;;;;;;;;;4993275;28;20113;-73
2022/03/23 04:52:32;;;;;;;30.23;20.60;;;;;;;;;;4992862;28;20029;-72
2022/03/23 04:54:58;;;;;;;33.03;21.30;;;;;;;;;;4993091;28;20039;-73
2022/03/23 04:57:25;;;;;;;33.63;22.20;;;;;;;;;;4993124;28;20414;-72
2022/03/23 04:59:51;;;;;;;35.42;24.23;;;;;;;;;;4992997;28;20536;-72
2022/03/23 05:02:18;;;;;;;34.47;20.75;;;;;;;;;;4992981;28;20036;-73
2022/03/23 05:04:44;;;;;;;61.83;32.75;;;;;;;;;;4992975;28;20505;-73
2022/03/23 05:07:10;;;;;;;39.33;25.50;;;;;;;;;;5042929;28;20526;-72
2022/03/23 05:09:36;;;;;;;38.08;25.60;;;;;;;;;;5074333;28;20379;-72
2022/03/23 05:12:02;;;;;;;45.22;26.67;;;;;;;;;;5074068;28;20028;-73
2022/03/23 05:14:28;;;;;;;39.40;24.58;;;;;;;;;;5073950;28;20108;-72
2022/03/23 05:16:54;;;;;;;36.97;24.50;;;;;;;;;;5074423;28;20025;-72
2022/03/23 05:19:20;;;;;;;40.08;25.63;;;;;;;;;;5073995;28;20115;-72
2022/03/23 05:21:47;;;;;;;44.17;29.42;;;;;;;;;;5073817;28;20017;-73
2022/03/23 05:24:13;;;;;;;48.13;29.33;;;;;;;;;;5073897;28;20411;-73
2022/03/23 05:26:39;;;;;;;58.38;38.17;;;;;;;;;;5073696;28;20044;-72
2022/03/23 05:29:05;;;;;;;48.95;31.10;;;;;;;;;;5073465;28;20032;-73
2022/03/23 05:31:31;;;;;;;51.25;31.48;;;204.80;1587.20;;;;;;5073774;28;20111;-72
2022/03/23 05:33:57;;;;;;;52.05;33.35;;;;;;;;;;5073529;28;20534;-72
2022/03/23 05:36:23;;;;;;;54.60;35.00;;;;;;;;;;5073539;28;20103;-72
2022/03/23 05:38:49;;;;;;;60.50;35.15;;;;;;;;;;5073491;28;20092;-72
2022/03/23 05:41:15;;;;;;;91.95;55.78;;;;;;;;;;5073494;28;20027;-72
2022/03/23 05:43:41;;;;;;;84.53;50.40;;;;;;;;;;5073336;28;20024;-72
2022/03/23 05:46:07;;;;;;;89.22;53.10;;;180.00;1638.40;;;;;;5073255;28;20090;-71
2022/03/23 05:48:33;;;;;;;99.18;63.88;;;;;;;;;;5073377;28;20024;-72
2022/03/23 05:50:59;;;;;;;58.22;37.85;;;179.80;1664.00;;;;;;5073186;28;20111;-71
2022/03/23 05:53:25;;;;;;;83.72;51.13;;;;;;;;;;5073179;28;20127;-72
2022/03/23 05:55:51;;;;;;;81.85;49.42;;;180.00;2252.80;;;;;;5073302;28;20375;-70
2022/03/23 05:58:17;;;;;;;154.65;104.25;;;180.00;2099.20;;;;;;5073112;28;20039;-69
2022/03/23 06:00:44;;;;;;;90.95;60.20;;;204.80;1638.40;;;;;;5073031;28;20375;-70
2022/03/23 06:03:10;;;;;;;80.20;55.22;;;205.10;1843.20;;;;;;5073093;28;20025;-72
2022/03/23 06:05:36;;;;;;;93.45;65.50;;;204.90;1638.40;;;;;;5072685;28;20028;-72
2022/03/23 06:08:02;;;;;;;95.65;64.88;;;205.00;1638.40;;;;;;5073409;28;20024;-69
2022/03/23 06:10:28;;;;;;;83.80;52.53;;;205.10;1612.80;;;;;;5073013;28;20029;-70
2022/03/23 06:12:54;;;;;;;85.78;55.67;;;205.30;1612.80;;;;;;5073226;28;20033;-73
2022/03/23 06:15:20;;;;;;;66.25;40.63;;;;;;;;;;5072933;28;20099;-72
2022/03/23 06:17:46;;;;;;;69.38;43.97;;;;;;;;;;5073034;28;20036;-73
2022/03/23 06:20:13;;;;;;;58.63;39.17;;;;;;;;;;5073034;28;20461;-72
2022/03/23 06:22:39;;;;;;;60.90;38.70;;;;;;;;;;5072715;28;20029;-72
2022/03/23 06:25:07;;;;;;;64.72;38.45;;;;;;;;;;5072706;28;20052;-72
2022/03/23 06:27:34;;;;;;;65.78;41.83;;;;;;;;;;5073306;28;20016;-72
2022/03/23 06:30:00;;;;;;;77.43;50.17;;;;;;;;;;5072527;28;20066;-72
2022/03/23 06:32:26;;;;;;;73.35;46.60;;;;;;;;;;5072716;28;20117;-73
2022/03/23 06:34:53;;;;;;;68.40;45.03;;;;;;;;;;5072730;28;20048;-73
2022/03/23 06:37:19;;;;;;;65.68;42.17;;;;;;;;;;5072774;28;20079;-73
2022/03/23 06:39:45;;;;;;;67.95;45.67;;;;;;;;;;5073117;28;20469;-73
2022/03/23 06:42:11;;;;;;;85.97;48.53;;;;;;;;;;5072854;28;20024;-71
2022/03/23 06:44:38;;;;;;;70.57;44.25;;;;;;;;;;5072242;28;20465;-73
2022/03/23 06:47:04;;;;;;;72.00;44.97;;;;;;;;;;5072795;28;20028;-71
2022/03/23 06:49:30;;;;;;;64.03;43.70;;;;;;;;;;5072601;28;20029;-72
2022/03/23 06:51:56;;;;;;;84.05;54.63;;;;;;;;;;5072555;28;20051;-73
2022/03/23 06:54:22;;;;;;;75.75;48.75;;;;;;;;;;5072424;28;20036;-72
2022/03/23 06:56:51;;;;;;;95.28;59.10;;;;;;;;;;5072486;28;20476;-73
2022/03/23 06:59:18;;;;;;;77.53;47.50;;;;;;;;;;5072151;28;20024;-72
2022/03/23 07:01:44;;;;;;;73.50;46.13;;;;;;;;;;5072368;28;20029;-71
2022/03/23 07:04:10;;;;;;;82.88;62.60;;;;;;;;;;5072218;28;20088;-71
2022/03/23 07:06:36;;;;;;;66.78;47.55;;;;;;;;;;5072757;28;20021;-72
2022/03/23 07:11:47;;;;;;;68.93;43.60;;;;;;;;;;5072697;28;20086;-72
2022/03/23 07:14:13;;;;;;;72.90;44.95;;;;;;;;;;5072009;28;20398;-73
2022/03/23 07:16:41;;;;;;;72.05;45.67;;;;;;;;;;5072928;28;20028;-71
2022/03/23 07:19:07;;;;;;;108.80;57.88;;;;;;;;;;5076150;28;20132;-72
2022/03/23 07:21:34;;;;;;;65.30;44.63;;;;;;;;;;5076087;28;20391;-73
2022/03/23 07:24:00;;;;;;;60.95;41.42;;;;;;;;;;5076537;28;20025;-69
2022/03/23 07:26:26;;;;;;;58.92;39.33;;;;;;;;;;5075950;28;20047;-68
2022/03/23 07:28:52;;;;;;;51.60;37.05;;;;;;;;;;5075836;28;20033;-71
2022/03/23 07:31:18;;;;;;;54.67;38.85;;;;;;;;;;5075916;28;20021;-71
2022/03/23 07:33:44;;;;;;;51.25;35.17;;;;;;;;;;5075680;28;20029;-71
2022/03/23 07:36:12;;;;;;;60.88;37.67;;;;;;;;;;5075797;28;20017;-72
2022/03/23 07:38:38;;;;;;;66.35;39.85;;;;;;;;;;5075784;28;20035;-71
2022/03/23 07:41:04;;;;;;;67.85;44.70;;;;;;;;;;5076253;28;20084;-71
2022/03/23 07:43:30;;;;;;;59.55;39.35;;;;;;;;;;5075940;28;20031;-72
2022/03/23 07:45:56;;;;;;;54.95;34.40;;;;;;;;;;5075872;28;20035;-71
2022/03/23 07:48:23;;;;;;;51.10;33.08;;;;;;;;;;5075783;28;20438;-68
2022/03/23 07:50:50;;;;;;;47.72;31.70;;;;;;;;;;5075703;28;20021;-71
2022/03/23 07:53:16;;;;;;;45.05;30.90;;;;;;;;;;5075445;28;20471;-71
2022/03/23 07:55:43;;;;;;;48.03;33.17;;;;;;;;;;5075549;28;20108;-70
2022/03/23 07:58:09;;;;;;;57.90;36.22;;;;;;;;;;5075223;28;20074;-73
2022/03/23 08:00:35;;;;;;;50.67;31.00;;;;;;;;;;5075402;28;20480;-71
2022/03/23 08:03:01;;;;;;;45.88;28.77;;;;;;;;;;5075606;28;20102;-70
2022/03/23 08:05:28;;;;;;;46.63;27.63;;;;;;;;;;5075358;28;20059;-71
2022/03/23 08:07:55;;;;;;;42.75;30.67;;;;;;;;;;5075278;28;20016;-71
2022/03/23 08:10:21;;;;;;;57.20;33.00;;;;;;;;;;5075566;28;20020;-70
2022/03/23 08:12:47;;;;;;;49.08;30.40;;;;;;;;;;5074989;28;20061;-72
2022/03/23 08:15:13;;;;;;;59.03;38.53;;;;;;;;;;5056661;28;20029;-71
2022/03/23 08:17:39;;;;;;;60.85;35.50;;;;;;;;;;5075085;28;20033;-73
2022/03/23 08:22:56;;;;;;;44.65;29.75;;;;;;;;;;5075360;28;20574;-71
2022/03/23 08:25:22;;;;;;;46.35;29.98;;;;;;;;;;5056094;28;20135;-71
2022/03/23 08:27:48;;;;;;;53.10;33.72;;;;;;;;;;5074310;28;20032;-71
2022/03/23 08:30:14;;;;;;;49.92;32.22;;;;;;;;;;5074681;28;20132;-71
2022/03/23 08:32:40;;;;;;;55.03;32.03;;;;;;;;;;5074804;28;20036;-70
2022/03/23 08:35:07;;;;;;;52.53;32.83;;;;;;;;;;5074679;28;20387;-68
2022/03/23 08:37:33;;;;;;;46.10;31.52;;;;;;;;;;5074831;28;20021;-71
2022/03/23 08:39:59;;;;;;;47.67;34.17;;;;;;;;;;5074719;28;20422;-71
2022/03/23 08:42:25;;;;;;;53.33;33.22;;;;;;;;;;5074819;28;20387;-69
2022/03/23 08:44:52;;;;;;;46.00;32.15;;;;;;;;;;5074446;28;20036;-68
2022/03/23 08:47:18;;;;;;;44.03;31.30;;;;;;;;;;5074322;28;20428;-70
2022/03/23 08:49:44;;;;;;;51.97;27.63;;;;;;;;;;5074352;28;20033;-69
2022/03/23 08:52:10;;;;;;;46.00;28.42;;;;;;;;;;5074221;28;20030;-68
2022/03/23 08:54:36;;;;;;;38.45;23.42;;;;;;;;;;5074303;28;20029;-70
2022/03/23 08:57:03;;;;;;;60.50;37.20;;;;;;;;;;5074062;28;20107;-71
2022/03/23 08:59:30;;;;;;;29.67;20.52;;;;;;;;;;5074279;28;20012;-70
2022/03/23 09:01:56;;;;;;;31.90;21.67;;;;;;;;;;5074167;28;20035;-70
2022/03/23 09:04:23;;;;;;;30.73;18.83;;;;;;;;;;5074342;28;20154;-70
2022/03/23 09:06:49;;;;;;;30.98;18.83;;;;;;;;;;5074102;28;20029;-71
2022/03/23 09:09:15;;;;;;;35.45;20.52;;;;;;;;;;5073977;28;20027;-70
2022/03/23 09:11:43;;;;;;;34.85;22.38;;;;;;;;;;5073876;28;20032;-69
2022/03/23 09:14:10;;;;;;;34.75;20.50;;;;;;;;;;5074027;28;20402;-71
2022/03/23 09:16:36;;;;;;;30.90;18.98;;;;;;;;;;5074391;28;20028;-71
2022/03/23 09:19:02;;;;;;;50.08;30.67;;;;;;;;;;5073946;28;20028;-67
2022/03/23 09:21:28;;;;;;;33.25;19.52;;;512.20;870.40;;;;;;5074085;28;20047;-68
2022/03/23 09:23:53;;;;;;;57.40;26.67;;;512.30;844.80;;;;;;5073940;28;20025;-69
2022/03/23 09:26:19;;;;;;;32.15;20.58;;;512.60;870.40;;;;;;5073448;28;20051;-69
2022/03/23 09:28:46;;;;;;;24.63;15.50;;;;;;;;;;5055707;28;20471;-71
2022/03/23 09:31:12;;;;;;;29.73;15.75;;;512.80;870.40;;;;;;5073703;28;20020;-68
2022/03/23 09:33:37;;;;;;;33.42;18.58;;;537.60;896.00;;;;;;5073655;28;20055;-67
2022/03/23 09:36:03;;;;;;;26.10;19.17;;;537.90;870.40;;;;;;5073584;28;20048;-72
2022/03/23 09:38:30;;;;;;;26.00;15.02;;;;;;;;;;5073635;28;20386;-71
2022/03/23 09:40:56;;;;;;;23.33;15.30;;;;;;;;;;5072663;28;20032;-71
2022/03/23 09:43:23;;;;;;;24.88;16.38;;;;;;;;;;5073369;28;20387;-70
2022/03/23 09:45:51;;;;;;;25.42;17.83;;;742.60;665.60;;;;;;5073539;28;20043;-71
2022/03/23 09:48:21;;;;;;;26.05;16.15;;;;;;;;;;5073216;28;20495;-71
2022/03/23 09:50:50;;;;;;;25.33;15.73;;;768.70;614.40;;;;;;5055081;28;20139;-71
2022/03/23 09:53:16;;;;;;;42.70;16.65;;;844.80;588.80;;;;;;5055114;28;20037;-72
2022/03/23 09:55:43;;;;;;;21.63;19.35;;;;;;;;;;5073156;28;20017;-72
2022/03/23 09:58:09;;;;;;;19.40;13.45;;;896.10;512.00;;;;;;5073219;28;20029;-71
2022/03/23 10:00:37;;;;;;;19.95;13.80;;;;;;;;;;5073115;28;20027;-72
2022/03/23 10:03:12;;;;;;;28.92;14.93;;;896.90;512.00;;;;;;5073032;28;20024;-69
2022/03/23 10:06:22;;;;;;;25.33;15.05;;;922.20;486.40;;;;;;5072947;28;20513;-71
2022/03/23 10:09:25;;;;;;;34.15;25.90;;;922.10;512.00;;;;;;5041817;28;20032;-72
2022/03/23 10:12:23;;;;;;;13.98;10.90;;;;;;;;;;5073008;28;20391;-73
2022/03/23 10:15:08;;;;;;;20.75;11.88;;;;;;;;;;5072603;28;20037;-72
2022/03/23 10:17:40;;;;;;;28.73;15.10;;;;;;;;;;5073155;28;20025;-73
2022/03/23 10:20:06;;;;;;;15.02;9.68;;;;;;;;;;5072885;28;20104;-73
2022/03/23 10:22:32;;;;;;;23.02;12.98;;;;;;;;;;5072859;28;20020;-74
2022/03/23 10:25:10;;;;;;;15.55;10.20;;;;;;;;;;5072479;28;20027;-74
2022/03/23 10:27:38;;;;;;;44.15;33.65;;;;;;;;;;5072861;28;20379;-73
2022/03/23 10:30:04;;;;;;;41.30;32.58;;;;;;;;;;5072769;28;20028;-74
2022/03/23 10:32:36;;;;;;;25.13;9.85;;;;;;;;;;5072873;28;20383;-74
2022/03/23 10:35:04;;;;;;;15.85;8.77;;;;;;;;;;5072686;28;20032;-73
2022/03/23 10:37:33;;;;;;;20.90;10.55;;;1024.40;409.60;;;;;;5072704;28;20048;-73
2022/03/23 10:40:04;;;;;;;13.07;8.20;;;1024.40;435.20;;;;;;5072758;28;20024;-73
2022/03/23 10:42:34;;;;;;;26.08;10.57;;;;;;;;;;5072597;28;20035;-74
2022/03/23 10:45:33;;;;;;;21.67;9.32;;;1049.70;409.60;;;;;;5054453;28;20483;-74
2022/03/23 10:48:09;;;;;;;24.37;14.57;;;;;;;;;;5069441;28;20439;-75
2022/03/23 10:50:36;;;;;;;18.23;9.77;;;;;;;;;;5072680;28;20162;-72
2022/03/23 10:53:07;;;;;;;27.48;19.13;;;1050.50;409.60;;;;;;5076383;28;20032;-74
2022/03/23 10:55:47;;;;;;;18.45;13.60;;;;;;;;;;5076411;28;20497;-72
2022/03/23 10:58:13;;;;;;;;;;;;;;;;;;5076923;28;20021;-74
2022/03/23 11:00:40;;;;;;;17.50;11.10;;;1024.60;409.60;;;;;;5076825;28;19927;-74
2022/03/23 11:03:08;;;;;;;17.33;11.43;;;1024.70;409.60;;;;;;5076412;28;20024;-73
2022/03/23 11:05:39;;;;;;;17.63;11.15;;;;;;;;;;5076239;28;20048;-74
2022/03/23 11:08:15;;;;;;;14.55;9.43;;;1050.30;409.60;;;;;;5076224;28;20028;-70
2022/03/23 11:16:25;;;;;;;13.80;9.05;;;1050.10;409.60;;;;;;5076673;28;20032;-70
2022/03/23 11:19:20;;;;;;;23.13;15.48;;;;;;;;;;5058242;28;20440;-72
2022/03/23 11:21:58;;;;;;;15.55;10.13;;;;;;;;;;4994535;28;20035;-73
2022/03/23 11:24:26;;;;;;;22.55;13.25;;;1049.90;409.60;;;;;;4994582;28;20031;-70
2022/03/23 11:26:53;;;;;;;26.30;16.00;;;1050.10;409.60;;;;;;4994436;28;20046;-71
2022/03/23 11:29:19;;;;;;;30.42;22.73;;;1024.70;409.60;;;;;;4994404;28;20444;-73
2022/03/23 11:31:46;;;;;;;16.70;10.38;;;1024.70;384.00;;;;;;4994555;28;20109;-69
2022/03/23 11:34:17;;;;;;;31.05;21.15;;;1024.40;409.60;;;;;;4994226;28;20456;-73
2022/03/23 11:36:43;;;;;;;14.52;10.85;;;;;;;;;;4994164;28;20030;-74
2022/03/23 11:39:10;;;;;;;20.85;13.32;;;999.20;435.20;;;;;;4994182;28;20540;-73
2022/03/23 11:41:37;;;;;;;20.33;11.10;;;;;;;;;;4994327;28;20030;-72
2022/03/23 11:44:03;;;;;;;22.73;11.27;;;;;;;;;;4994571;28;20030;-72
2022/03/23 11:46:29;;;;;;;27.00;12.55;;;;;;;;;;4993973;28;20070;-72
2022/03/23 11:48:58;;;;;;;24.63;15.02;;;;;;;;;;4994088;28;20493;-72
2022/03/23 11:51:36;;;;;;;22.17;14.75;;;;;;;;;;4993895;28;20053;-69
2022/03/23 11:54:04;;;;;;;21.40;14.38;;;947.80;460.80;;;;;;4993927;28;20057;-73
2022/03/23 11:57:00;;;;;;;32.25;14.80;;;;;;;;;;4994009;28;20037;-71
2022/03/23 11:59:30;;;;;;;19.25;11.13;;;;;;;;;;4967669;28;20039;-73
2022/03/23 12:01:57;;;;;;;29.55;16.17;;;;;;;;;;4974207;28;20022;-72
2022/03/23 12:04:24;;;;;;;25.75;17.75;;;896.70;460.80;;;;;;4973819;28;20571;-69
2022/03/23 12:07:07;;;;;;;23.45;13.20;;;896.90;486.40;;;;;;4974410;28;20493;-71
2022/03/23 12:09:34;;;;;;;45.47;16.40;;;;;;;;;;4974109;28;20494;-72
2022/03/23 12:12:11;;;;;;;19.63;13.88;;;896.10;486.40;;;;;;4974311;28;20386;-72
2022/03/23 12:14:38;;;;;;;38.38;14.35;;;;;;;;;;4973906;28;20565;-73
2022/03/23 12:17:09;;;;;;;23.23;16.25;;;;;;;;;;4974183;28;20531;-73
2022/03/23 12:19:53;;;;;;;;;;;870.90;512.00;;;;;;4974586;28;20171;-72
2022/03/23 12:22:30;;;;;;;20.08;11.77;;;;;;;;;;4974173;28;19910;-73
2022/03/23 12:25:16;;;;;;;20.80;11.20;;;;;;;;;;4973662;28;20034;-69
2022/03/23 12:28:00;;;;;;;17.58;12.23;;;;;;;;;;4974068;28;20023;-72
2022/03/23 12:30:26;;;;;;;19.70;11.38;;;;;;;;;;4973807;28;20039;-73
2022/03/23 12:32:54;;;;;;;33.65;12.82;;;;;;;;;;4973894;28;20592;-74
2022/03/23 12:35:30;;;;;;;17.17;11.27;;;;;;;;;;4998149;28;20077;-74
2022/03/23 12:37:59;;;;;;;32.10;15.75;;;;;;;;;;5054384;28;20399;-74
2022/03/23 12:40:36;;;;;;;44.90;24.67;;;;;;;;;;5054563;28;20059;-74
2022/03/23 12:43:02;;;;;;;26.60;15.38;;;;;;;;;;5054492;28;20021;-74
2022/03/23 12:45:32;;;;;;;20.42;12.45;;;;;;;;;;5054606;28;20029;-73
2022/03/23 12:48:00;;;;;;;23.20;13.65;;;;;;;;;;5054102;28;20510;-69
2022/03/23 12:58:47;;;;;;;25.65;15.00;;;;;;;;;;5054557;28;20122;-70
2022/03/23 13:01:14;;;;;;;37.90;19.98;;;;;;;;;;5054141;28;20021;-72
2022/03/23 13:03:43;;;;;;;17.80;12.45;;;;;;;;;;5054164;28;20108;-73
2022/03/23 13:06:13;;;;;;;21.33;12.13;;;;;;;;;;5054244;28;20048;-72
2022/03/23 13:08:47;;;;;;;18.52;11.82;;;;;;;;;;5053910;28;20112;-73
2022/03/23 13:11:14;;;;;;;19.55;11.48;;;;;;;;;;5053967;28;20025;-73
2022/03/23 13:13:41;;;;;;;20.85;11.80;;;;;;;;;;5053931;28;20488;-73
2022/03/23 13:16:11;;;;;;;16.52;10.88;;;;;;;;;;5054178;28;20095;-70
2022/03/23 13:18:37;;;;;;;20.27;11.52;;;;;;;;;;5053815;28;20522;-70
2022/03/23 13:21:08;;;;;;;34.80;16.77;;;;;;;;;;5053794;28;20053;-72
2022/03/23 13:23:35;;;;;;;16.23;12.53;;;;;;;;;;5053742;28;20028;-72
2022/03/23 13:26:11;;;;;;;33.25;21.38;;;;;;;;;;5063860;28;20076;-72
2022/03/23 13:28:41;;;;;;;38.92;19.50;;;;;;;;;;5073534;28;20056;-72
2022/03/23 13:31:08;;;;;;;24.80;17.00;;;;;;;;;;5073439;28;20521;-70
2022/03/23 13:33:37;;;;;;;16.48;11.35;;;666.50;640.00;;;;;;5073332;28;20033;-72
2022/03/23 13:36:04;;;;;;;22.58;15.32;;;;;;;;;;5073376;28;20024;-72
2022/03/23 13:38:35;;;;;;;26.90;17.23;;;;;;;;;;5073202;28;20020;-72
2022/03/23 13:43:51;;;;;;;17.05;11.55;;;;;;;;;;5073650;28;20510;-73
2022/03/23 13:46:17;;;;;;;27.87;15.97;;;;;;;;;;5073225;28;20024;-71
2022/03/23 13:48:43;;;;;;;19.10;14.68;;;;;;;;;;5073239;28;20356;-73
2022/03/23 13:51:09;;;;;;;32.00;21.45;;;;;;;;;;5073070;28;20074;-73
2022/03/23 13:53:36;;;;;;;26.35;11.45;;;;;;;;;;5073123;28;20115;-73
2022/03/23 13:56:02;;;;;;;28.92;14.35;;;;;;;;;;5073225;28;20020;-73
2022/03/23 13:58:28;;;;;;;30.42;12.20;;;;;;;;;;5072984;28;20031;-72
2022/03/23 14:00:56;;;;;;;20.67;12.77;;;;;;;;;;5073217;28;20024;-72
2022/03/23 14:03:30;;;;;;;20.60;12.10;;;;;;;;;;5073105;28;20029;-72
2022/03/23 14:06:15;;;;;;;32.60;16.67;;;;;;;;;;5072984;28;20048;-72
2022/03/23 14:08:51;;;;;;;23.70;13.27;;;;;;;;;;5072845;28;20035;-72
2022/03/23 14:11:18;;;;;;;29.27;15.40;;;;;;;;;;5072887;28;20106;-71
2022/03/23 14:13:49;;;;;;;35.85;18.13;;;;;;;;;;5072831;28;20471;-73
2022/03/23 14:16:19;;;;;;;29.13;15.65;;;;;;;;;;5072728;28;20135;-73
2022/03/23 14:18:45;;;;;;;36.25;16.08;;;;;;;;;;5072560;28;20025;-73
2022/03/23 14:21:11;;;;;;;18.17;13.25;;;;;;;;;;5072891;28;20021;-73
2022/03/23 14:23:37;;;;;;;25.55;12.82;;;;;;;;;;5072675;28;20093;-72